EJU12LE LPPR-LEMH
Flight info
| Callsign | EJU12LE |
|---|---|
| Flight time | 1h 35m |
| Altitude | 38000 |
| Route | BELDU DCT ADORO L155 ZMR DCT PDT M871 NANDO DCT FENXE DCT MABUX M871 PTC |
| Aircraft | A320/M-SDE3FGHIRWY/KG1 |
Departure
| Time | 2026-05-07 13:14 |
|---|---|
| Airport | Francisco de Sá Carneiro Airport (LPPR) |
Arrival
| Time | 2026-05-07 14:49 |
|---|---|
| Airport | Menorca Airport (LEMH) |
| Time | Latitude | Longitude | Altitude | Speed | Heading |
|---|---|---|---|---|---|
| 2026-05-07 12:55 | 41.23902 | -8.67387 | 226 ft | 0 kts | 124° |
| 2026-05-07 13:06 | 41.23907 | -8.67395 | 226 ft | 2 kts | 124° |
| 2026-05-07 13:06 | 41.23915 | -8.67412 | 226 ft | 2 kts | 124° |
| 2026-05-07 13:06 | 41.23924 | -8.67428 | 226 ft | 2 kts | 140° |
| 2026-05-07 13:06 | 41.23937 | -8.67438 | 226 ft | 2 kts | 159° |
| 2026-05-07 13:07 | 41.23952 | -8.67442 | 226 ft | 2 kts | 180° |
| 2026-05-07 13:07 | 41.23967 | -8.67439 | 226 ft | 2 kts | 199° |
| 2026-05-07 13:07 | 41.23975 | -8.67434 | 226 ft | 0 kts | 211° |
| 2026-05-07 13:07 | 41.23980 | -8.67430 | 226 ft | 0 kts | 213° |
| 2026-05-07 13:10 | 41.23963 | -8.67445 | 226 ft | 5 kts | 213° |
| 2026-05-07 13:11 | 41.23909 | -8.67488 | 226 ft | 10 kts | 199° |
| 2026-05-07 13:11 | 41.23833 | -8.67479 | 226 ft | 12 kts | 168° |
| 2026-05-07 13:11 | 41.23729 | -8.67452 | 226 ft | 16 kts | 169° |
| 2026-05-07 13:11 | 41.23615 | -8.67421 | 226 ft | 16 kts | 169° |
| 2026-05-07 13:12 | 41.23497 | -8.67391 | 226 ft | 17 kts | 168° |
| 2026-05-07 13:12 | 41.23394 | -8.67365 | 226 ft | 10 kts | 174° |
| 2026-05-07 13:12 | 41.23336 | -8.67414 | 226 ft | 10 kts | 247° |
| 2026-05-07 13:12 | 41.23320 | -8.67515 | 226 ft | 11 kts | 261° |
| 2026-05-07 13:13 | 41.23304 | -8.67622 | 226 ft | 11 kts | 257° |
| 2026-05-07 13:13 | 41.23308 | -8.67727 | 223 ft | 11 kts | 324° |
| 2026-05-07 13:13 | 41.23405 | -8.67759 | 222 ft | 26 kts | 348° |
| 2026-05-07 13:13 | 41.23867 | -8.67879 | 212 ft | 108 kts | 349° |
| 2026-05-07 13:14 | 41.24845 | -8.68137 | 195 ft | 175 kts | 348° |
| 2026-05-07 13:14 | 41.26145 | -8.68489 | 593 ft | 200 kts | 347° |
| 2026-05-07 13:14 | 41.27556 | -8.68891 | 1224 ft | 215 kts | 346° |
| 2026-05-07 13:14 | 41.29052 | -8.69338 | 1958 ft | 230 kts | 347° |
| 2026-05-07 13:15 | 41.30656 | -8.69757 | 2689 ft | 245 kts | 348° |
| 2026-05-07 13:15 | 41.32374 | -8.70190 | 3470 ft | 257 kts | 348° |
| 2026-05-07 13:15 | 41.34163 | -8.70635 | 4214 ft | 269 kts | 349° |
| 2026-05-07 13:15 | 41.36021 | -8.71096 | 5037 ft | 276 kts | 348° |
| 2026-05-07 13:16 | 41.37904 | -8.71562 | 5869 ft | 282 kts | 349° |
| 2026-05-07 13:16 | 41.39862 | -8.71731 | 6664 ft | 288 kts | 10° |
| 2026-05-07 13:16 | 41.41707 | -8.70688 | 7466 ft | 292 kts | 39° |
| 2026-05-07 13:16 | 41.42946 | -8.68620 | 8290 ft | 291 kts | 68° |
| 2026-05-07 13:17 | 41.43462 | -8.66029 | 9162 ft | 291 kts | 81° |
| 2026-05-07 13:17 | 41.43844 | -8.63405 | 10002 ft | 293 kts | 81° |
| 2026-05-07 13:17 | 41.44227 | -8.60681 | 10548 ft | 307 kts | 84° |
| 2026-05-07 13:17 | 41.44202 | -8.57768 | 10884 ft | 324 kts | 99° |
| 2026-05-07 13:18 | 41.43881 | -8.54731 | 11403 ft | 335 kts | 99° |
| 2026-05-07 13:18 | 41.43559 | -8.51622 | 12077 ft | 341 kts | 99° |
| 2026-05-07 13:18 | 41.43237 | -8.48495 | 12768 ft | 345 kts | 99° |
| 2026-05-07 13:18 | 41.42909 | -8.45312 | 13437 ft | 349 kts | 99° |
| 2026-05-07 13:19 | 41.42579 | -8.42092 | 14068 ft | 353 kts | 99° |
| 2026-05-07 13:19 | 41.42240 | -8.38818 | 14694 ft | 358 kts | 98° |
| 2026-05-07 13:19 | 41.41899 | -8.35521 | 15302 ft | 362 kts | 98° |
| 2026-05-07 13:19 | 41.41552 | -8.32197 | 15884 ft | 366 kts | 99° |
| 2026-05-07 13:20 | 41.41196 | -8.28812 | 16468 ft | 370 kts | 99° |
| 2026-05-07 13:20 | 41.40836 | -8.25447 | 17024 ft | 373 kts | 99° |
| 2026-05-07 13:20 | 41.40449 | -8.21969 | 17580 ft | 377 kts | 99° |
| 2026-05-07 13:20 | 41.40074 | -8.18530 | 18092 ft | 381 kts | 98° |
| 2026-05-07 13:21 | 41.39757 | -8.15013 | 18611 ft | 385 kts | 97° |
| 2026-05-07 13:21 | 41.39440 | -8.11425 | 19118 ft | 388 kts | 97° |
| 2026-05-07 13:21 | 41.39099 | -8.07846 | 19610 ft | 392 kts | 98° |
| 2026-05-07 13:21 | 41.38732 | -8.04233 | 20094 ft | 395 kts | 98° |
| 2026-05-07 13:22 | 41.38350 | -8.00590 | 20567 ft | 399 kts | 98° |
| 2026-05-07 13:22 | 41.37962 | -7.96952 | 21036 ft | 402 kts | 98° |
| 2026-05-07 13:22 | 41.37562 | -7.93227 | 21502 ft | 405 kts | 98° |
| 2026-05-07 13:22 | 41.37164 | -7.89535 | 21939 ft | 408 kts | 98° |
| 2026-05-07 13:23 | 41.36755 | -7.85743 | 22360 ft | 411 kts | 98° |
| 2026-05-07 13:23 | 41.36351 | -7.81995 | 22779 ft | 414 kts | 98° |
| 2026-05-07 13:23 | 41.36023 | -7.78179 | 23186 ft | 417 kts | 91° |
| 2026-05-07 13:23 | 41.36185 | -7.74273 | 23577 ft | 420 kts | 82° |
| 2026-05-07 13:24 | 41.36530 | -7.70433 | 23970 ft | 422 kts | 82° |
| 2026-05-07 13:24 | 41.36876 | -7.66543 | 24352 ft | 425 kts | 82° |
| 2026-05-07 13:24 | 41.37221 | -7.62627 | 24717 ft | 429 kts | 82° |
| 2026-05-07 13:24 | 41.37569 | -7.58661 | 25078 ft | 432 kts | 82° |
| 2026-05-07 13:25 | 41.37918 | -7.54673 | 25427 ft | 435 kts | 82° |
| 2026-05-07 13:25 | 41.38269 | -7.50649 | 25773 ft | 438 kts | 81° |
| 2026-05-07 13:25 | 41.38620 | -7.46611 | 26111 ft | 441 kts | 81° |
| 2026-05-07 13:25 | 41.38974 | -7.42523 | 26460 ft | 443 kts | 81° |
| 2026-05-07 13:26 | 41.39322 | -7.38476 | 26787 ft | 446 kts | 81° |
| 2026-05-07 13:26 | 41.39679 | -7.34315 | 27110 ft | 449 kts | 82° |
| 2026-05-07 13:26 | 41.40031 | -7.30199 | 27406 ft | 452 kts | 82° |
| 2026-05-07 13:26 | 41.40385 | -7.26030 | 27700 ft | 455 kts | 81° |
| 2026-05-07 13:27 | 41.40744 | -7.21796 | 28015 ft | 457 kts | 81° |
| 2026-05-07 13:27 | 41.41099 | -7.17572 | 28301 ft | 459 kts | 81° |
| 2026-05-07 13:27 | 41.41450 | -7.13370 | 28587 ft | 462 kts | 81° |
| 2026-05-07 13:27 | 41.41804 | -7.09087 | 28864 ft | 464 kts | 81° |
| 2026-05-07 13:28 | 41.42152 | -7.04793 | 29150 ft | 466 kts | 82° |
| 2026-05-07 13:28 | 41.42498 | -7.00513 | 29427 ft | 468 kts | 81° |
| 2026-05-07 13:28 | 41.42878 | -6.96175 | 29688 ft | 471 kts | 81° |
| 2026-05-07 13:28 | 41.43259 | -6.91826 | 29957 ft | 473 kts | 81° |
| 2026-05-07 13:29 | 41.43629 | -6.87435 | 30226 ft | 474 kts | 81° |
| 2026-05-07 13:29 | 41.43985 | -6.83074 | 30503 ft | 476 kts | 81° |
| 2026-05-07 13:29 | 41.44341 | -6.78658 | 30752 ft | 478 kts | 81° |
| 2026-05-07 13:29 | 41.44691 | -6.74284 | 31012 ft | 479 kts | 82° |
| 2026-05-07 13:30 | 41.45046 | -6.69831 | 31269 ft | 480 kts | 82° |
| 2026-05-07 13:30 | 41.45399 | -6.65390 | 31505 ft | 482 kts | 82° |
| 2026-05-07 13:30 | 41.45748 | -6.60978 | 31746 ft | 483 kts | 82° |
| 2026-05-07 13:30 | 41.46098 | -6.56528 | 31998 ft | 484 kts | 82° |
| 2026-05-07 13:31 | 41.46448 | -6.52074 | 32335 ft | 482 kts | 82° |
| 2026-05-07 13:31 | 41.46795 | -6.47635 | 32650 ft | 481 kts | 82° |
| 2026-05-07 13:31 | 41.47140 | -6.43184 | 32964 ft | 479 kts | 82° |
| 2026-05-07 13:31 | 41.47481 | -6.38763 | 33255 ft | 479 kts | 82° |
| 2026-05-07 13:32 | 41.47823 | -6.34330 | 33530 ft | 478 kts | 83° |
| 2026-05-07 13:32 | 41.48160 | -6.29938 | 33799 ft | 477 kts | 83° |
| 2026-05-07 13:32 | 41.48496 | -6.25534 | 34046 ft | 477 kts | 83° |
| 2026-05-07 13:32 | 41.48829 | -6.21158 | 34293 ft | 477 kts | 83° |
| 2026-05-07 13:33 | 41.49165 | -6.16715 | 34575 ft | 475 kts | 83° |
| 2026-05-07 13:33 | 41.49494 | -6.12343 | 34816 ft | 475 kts | 83° |
| 2026-05-07 13:33 | 41.49818 | -6.08007 | 35086 ft | 473 kts | 83° |
| 2026-05-07 13:33 | 41.50144 | -6.03622 | 35349 ft | 472 kts | 83° |
| 2026-05-07 13:34 | 41.50464 | -5.99254 | 35575 ft | 472 kts | 83° |
| 2026-05-07 13:34 | 41.51086 | -5.90615 | 36106 ft | 468 kts | 84° |
| 2026-05-07 13:34 | 41.51412 | -5.86267 | 36305 ft | 468 kts | 83° |
| 2026-05-07 13:35 | 41.51731 | -5.81971 | 36488 ft | 468 kts | 84° |
| 2026-05-07 13:35 | 41.52049 | -5.77616 | 36665 ft | 468 kts | 84° |
| 2026-05-07 13:35 | 41.52359 | -5.73265 | 36834 ft | 469 kts | 85° |
| 2026-05-07 13:35 | 41.52404 | -5.68923 | 36999 ft | 469 kts | 95° |
| 2026-05-07 13:36 | 41.51890 | -5.64674 | 37140 ft | 468 kts | 105° |
| 2026-05-07 13:36 | 41.50796 | -5.60553 | 37275 ft | 467 kts | 116° |
| 2026-05-07 13:36 | 41.49192 | -5.56822 | 37422 ft | 465 kts | 126° |
| 2026-05-07 13:36 | 41.47313 | -5.53317 | 37577 ft | 465 kts | 127° |
| 2026-05-07 13:37 | 41.45420 | -5.49830 | 37738 ft | 464 kts | 127° |
| 2026-05-07 13:37 | 41.43537 | -5.46355 | 37892 ft | 464 kts | 127° |
| 2026-05-07 13:37 | 41.41640 | -5.42851 | 38005 ft | 465 kts | 127° |
| 2026-05-07 13:38 | 41.37875 | -5.35898 | 38028 ft | 464 kts | 127° |
| 2026-05-07 13:38 | 41.34076 | -5.28897 | 38028 ft | 463 kts | 128° |
| 2026-05-07 13:39 | 41.30454 | -5.22237 | 38030 ft | 462 kts | 128° |
| 2026-05-07 13:39 | 41.26683 | -5.15318 | 38030 ft | 462 kts | 128° |
| 2026-05-07 13:40 | 41.22911 | -5.08413 | 38029 ft | 461 kts | 128° |
| 2026-05-07 13:40 | 41.19142 | -5.01537 | 38028 ft | 461 kts | 128° |
| 2026-05-07 13:41 | 41.15357 | -4.94655 | 38028 ft | 460 kts | 128° |
| 2026-05-07 13:41 | 41.11606 | -4.87817 | 38027 ft | 460 kts | 128° |
| 2026-05-07 13:42 | 41.07845 | -4.80945 | 38028 ft | 460 kts | 128° |
| 2026-05-07 13:42 | 41.04076 | -4.74121 | 38029 ft | 459 kts | 128° |
| 2026-05-07 13:43 | 41.00293 | -4.67292 | 38030 ft | 459 kts | 128° |
| 2026-05-07 13:43 | 40.96500 | -4.60460 | 38030 ft | 459 kts | 128° |
| 2026-05-07 13:44 | 40.92737 | -4.53692 | 38030 ft | 458 kts | 128° |
| 2026-05-07 13:44 | 40.88963 | -4.46917 | 38030 ft | 458 kts | 128° |
| 2026-05-07 13:45 | 40.85179 | -4.40135 | 38030 ft | 458 kts | 128° |
| 2026-05-07 13:45 | 40.81387 | -4.33350 | 38031 ft | 458 kts | 129° |
| 2026-05-07 13:46 | 40.77579 | -4.26596 | 38034 ft | 457 kts | 129° |
| 2026-05-07 13:46 | 40.73797 | -4.19873 | 38037 ft | 457 kts | 129° |
| 2026-05-07 13:47 | 40.70007 | -4.13143 | 38041 ft | 457 kts | 129° |
| 2026-05-07 13:47 | 40.66209 | -4.06413 | 38044 ft | 457 kts | 129° |
| 2026-05-07 13:48 | 40.62409 | -3.99693 | 38054 ft | 456 kts | 129° |
| 2026-05-07 13:48 | 40.58627 | -3.93020 | 38072 ft | 455 kts | 129° |
| 2026-05-07 13:49 | 40.54849 | -3.86370 | 38081 ft | 454 kts | 129° |
| 2026-05-07 13:49 | 40.51064 | -3.79723 | 38076 ft | 454 kts | 129° |
| 2026-05-07 13:50 | 40.47274 | -3.73081 | 38066 ft | 453 kts | 129° |
| 2026-05-07 13:50 | 40.43484 | -3.66454 | 38059 ft | 453 kts | 129° |
| 2026-05-07 13:51 | 40.39711 | -3.59871 | 38057 ft | 453 kts | 129° |
| 2026-05-07 13:51 | 40.35914 | -3.53268 | 38060 ft | 453 kts | 130° |
| 2026-05-07 13:52 | 40.32126 | -3.46682 | 38063 ft | 453 kts | 129° |
| 2026-05-07 13:52 | 40.28342 | -3.40086 | 38064 ft | 453 kts | 130° |
| 2026-05-07 13:53 | 40.25041 | -3.33089 | 38066 ft | 459 kts | 115° |
| 2026-05-07 13:53 | 40.23138 | -3.25041 | 38072 ft | 461 kts | 109° |
| 2026-05-07 13:54 | 40.21373 | -3.17030 | 38068 ft | 460 kts | 109° |
| 2026-05-07 13:54 | 40.19591 | -3.08981 | 38060 ft | 460 kts | 109° |
| 2026-05-07 13:55 | 40.17804 | -3.00937 | 38057 ft | 459 kts | 110° |
| 2026-05-07 13:55 | 40.16029 | -2.92977 | 38056 ft | 458 kts | 110° |
| 2026-05-07 13:56 | 40.14227 | -2.84927 | 38062 ft | 458 kts | 110° |
| 2026-05-07 13:56 | 40.12438 | -2.76959 | 38061 ft | 458 kts | 110° |
| 2026-05-07 13:57 | 40.10643 | -2.68992 | 38062 ft | 458 kts | 111° |
| 2026-05-07 13:57 | 40.08831 | -2.60982 | 38065 ft | 458 kts | 111° |
| 2026-05-07 13:58 | 40.07030 | -2.53044 | 38068 ft | 458 kts | 111° |
| 2026-05-07 13:58 | 40.05205 | -2.45032 | 38069 ft | 458 kts | 111° |
| 2026-05-07 13:59 | 40.03388 | -2.37080 | 38070 ft | 458 kts | 111° |
| 2026-05-07 13:59 | 40.01561 | -2.29119 | 38072 ft | 458 kts | 112° |
| 2026-05-07 14:00 | 39.99737 | -2.21192 | 38074 ft | 458 kts | 112° |
| 2026-05-07 14:00 | 39.97279 | -2.13669 | 38072 ft | 449 kts | 124° |
| 2026-05-07 14:01 | 39.94259 | -2.06538 | 38075 ft | 448 kts | 124° |
| 2026-05-07 14:01 | 39.91259 | -1.99461 | 38074 ft | 448 kts | 124° |
| 2026-05-07 14:02 | 39.88166 | -1.92184 | 38074 ft | 448 kts | 124° |
| 2026-05-07 14:02 | 39.85090 | -1.84960 | 38074 ft | 449 kts | 124° |
| 2026-05-07 14:03 | 39.82061 | -1.77863 | 38075 ft | 449 kts | 124° |
| 2026-05-07 14:03 | 39.79038 | -1.70799 | 38074 ft | 450 kts | 124° |
| 2026-05-07 14:04 | 39.75979 | -1.63666 | 38079 ft | 450 kts | 124° |
| 2026-05-07 14:04 | 39.72928 | -1.56568 | 38077 ft | 450 kts | 124° |
| 2026-05-07 14:05 | 39.69874 | -1.49469 | 38073 ft | 450 kts | 124° |
| 2026-05-07 14:05 | 39.66808 | -1.42354 | 38071 ft | 450 kts | 124° |
| 2026-05-07 14:06 | 39.63761 | -1.35309 | 38072 ft | 451 kts | 124° |
| 2026-05-07 14:06 | 39.60681 | -1.28208 | 38077 ft | 451 kts | 125° |
| 2026-05-07 14:07 | 39.57594 | -1.21110 | 38079 ft | 451 kts | 125° |
| 2026-05-07 14:07 | 39.55255 | -1.13484 | 38077 ft | 466 kts | 106° |
| 2026-05-07 14:08 | 39.54821 | -1.05012 | 38079 ft | 475 kts | 95° |
| 2026-05-07 14:08 | 39.54744 | -0.96468 | 38076 ft | 475 kts | 95° |
| 2026-05-07 14:09 | 39.54653 | -0.87860 | 38072 ft | 475 kts | 95° |
| 2026-05-07 14:09 | 39.54555 | -0.79338 | 38068 ft | 474 kts | 95° |
| 2026-05-07 14:10 | 39.54450 | -0.70756 | 38064 ft | 475 kts | 95° |
| 2026-05-07 14:10 | 39.54340 | -0.62217 | 38064 ft | 475 kts | 95° |
| 2026-05-07 14:11 | 39.54223 | -0.53663 | 38068 ft | 475 kts | 95° |
| 2026-05-07 14:11 | 39.54001 | -0.45127 | 38071 ft | 472 kts | 103° |
| 2026-05-07 14:12 | 39.52376 | -0.36986 | 38074 ft | 465 kts | 112° |
| 2026-05-07 14:12 | 39.50583 | -0.29394 | 38079 ft | 465 kts | 112° |
| 2026-05-07 14:13 | 39.48674 | -0.21341 | 38070 ft | 469 kts | 112° |
| 2026-05-07 14:13 | 39.46735 | -0.13187 | 38058 ft | 474 kts | 112° |
| 2026-05-07 14:14 | 39.44792 | -0.05043 | 38052 ft | 477 kts | 112° |
| 2026-05-07 14:14 | 39.42818 | 0.03209 | 38046 ft | 476 kts | 113° |
| 2026-05-07 14:15 | 39.40865 | 0.11337 | 38046 ft | 475 kts | 113° |
| 2026-05-07 14:15 | 39.38904 | 0.19472 | 38041 ft | 475 kts | 113° |
| 2026-05-07 14:16 | 39.36924 | 0.27660 | 38038 ft | 475 kts | 113° |
| 2026-05-07 14:16 | 39.34946 | 0.35806 | 38038 ft | 475 kts | 113° |
| 2026-05-07 14:17 | 39.33408 | 0.44142 | 38039 ft | 488 kts | 99° |
| 2026-05-07 14:17 | 39.33600 | 0.52996 | 38047 ft | 495 kts | 91° |
| 2026-05-07 14:18 | 39.34012 | 0.61934 | 38054 ft | 495 kts | 91° |
| 2026-05-07 14:18 | 39.34405 | 0.70819 | 38051 ft | 495 kts | 92° |
| 2026-05-07 14:19 | 39.34790 | 0.79711 | 38048 ft | 495 kts | 91° |
| 2026-05-07 14:19 | 39.35166 | 0.88565 | 38041 ft | 495 kts | 92° |
| 2026-05-07 14:20 | 39.35540 | 0.97501 | 38038 ft | 496 kts | 91° |
| 2026-05-07 14:20 | 39.35903 | 1.06362 | 38041 ft | 497 kts | 91° |
| 2026-05-07 14:21 | 39.36264 | 1.15331 | 38041 ft | 498 kts | 91° |
| 2026-05-07 14:21 | 39.36618 | 1.24286 | 38047 ft | 498 kts | 91° |
| 2026-05-07 14:22 | 39.36963 | 1.33202 | 38052 ft | 499 kts | 91° |
| 2026-05-07 14:22 | 39.37305 | 1.42208 | 38057 ft | 500 kts | 91° |
| 2026-05-07 14:23 | 39.37637 | 1.51167 | 38060 ft | 500 kts | 91° |
| 2026-05-07 14:23 | 39.37964 | 1.60167 | 38063 ft | 500 kts | 91° |
| 2026-05-07 14:24 | 39.38284 | 1.69155 | 38061 ft | 500 kts | 92° |
| 2026-05-07 14:24 | 39.38597 | 1.78185 | 38037 ft | 500 kts | 92° |
| 2026-05-07 14:25 | 39.38902 | 1.87143 | 38033 ft | 499 kts | 92° |
| 2026-05-07 14:25 | 39.39199 | 1.96098 | 38026 ft | 499 kts | 92° |
| 2026-05-07 14:26 | 39.39491 | 2.05087 | 38026 ft | 500 kts | 92° |
| 2026-05-07 14:26 | 39.39778 | 2.14116 | 37505 ft | 499 kts | 92° |
| 2026-05-07 14:26 | 39.39917 | 2.18603 | 36794 ft | 502 kts | 92° |
| 2026-05-07 14:27 | 39.40054 | 2.23072 | 36050 ft | 504 kts | 93° |
| 2026-05-07 14:27 | 39.40193 | 2.27658 | 35272 ft | 507 kts | 93° |
| 2026-05-07 14:27 | 39.40329 | 2.32215 | 34492 ft | 510 kts | 93° |
| 2026-05-07 14:27 | 39.40464 | 2.36792 | 33692 ft | 513 kts | 93° |
| 2026-05-07 14:28 | 39.40598 | 2.41395 | 32886 ft | 515 kts | 93° |
| 2026-05-07 14:28 | 39.40732 | 2.46025 | 32144 ft | 516 kts | 93° |
| 2026-05-07 14:28 | 39.40865 | 2.50677 | 31445 ft | 515 kts | 93° |
| 2026-05-07 14:28 | 39.40994 | 2.55284 | 30855 ft | 511 kts | 93° |
| 2026-05-07 14:29 | 39.41122 | 2.59896 | 30361 ft | 505 kts | 93° |
| 2026-05-07 14:29 | 39.41244 | 2.64342 | 30017 ft | 497 kts | 93° |
| 2026-05-07 14:29 | 39.41359 | 2.68617 | 29604 ft | 492 kts | 94° |
| 2026-05-07 14:29 | 39.41475 | 2.73025 | 29121 ft | 487 kts | 93° |
| 2026-05-07 14:30 | 39.41588 | 2.77362 | 28619 ft | 482 kts | 93° |
| 2026-05-07 14:30 | 39.41700 | 2.81707 | 28111 ft | 478 kts | 93° |
| 2026-05-07 14:30 | 39.41808 | 2.86005 | 27602 ft | 474 kts | 93° |
| 2026-05-07 14:30 | 39.41913 | 2.90209 | 27095 ft | 470 kts | 93° |
| 2026-05-07 14:31 | 39.42017 | 2.94451 | 26576 ft | 466 kts | 92° |
| 2026-05-07 14:31 | 39.42118 | 2.98620 | 26046 ft | 463 kts | 92° |
| 2026-05-07 14:31 | 39.42217 | 3.02782 | 25509 ft | 459 kts | 92° |
| 2026-05-07 14:31 | 39.42313 | 3.06883 | 24993 ft | 456 kts | 92° |
| 2026-05-07 14:32 | 39.42407 | 3.10943 | 24480 ft | 452 kts | 92° |
| 2026-05-07 14:32 | 39.42500 | 3.15014 | 23959 ft | 448 kts | 92° |
| 2026-05-07 14:32 | 39.42590 | 3.19036 | 23452 ft | 444 kts | 92° |
| 2026-05-07 14:32 | 39.42696 | 3.22981 | 22983 ft | 441 kts | 88° |
| 2026-05-07 14:33 | 39.43361 | 3.26843 | 22470 ft | 442 kts | 68° |
| 2026-05-07 14:33 | 39.44820 | 3.30371 | 21991 ft | 439 kts | 59° |
| 2026-05-07 14:33 | 39.46379 | 3.33696 | 21502 ft | 435 kts | 59° |
| 2026-05-07 14:33 | 39.47940 | 3.37032 | 21030 ft | 430 kts | 59° |
| 2026-05-07 14:34 | 39.49471 | 3.40331 | 20557 ft | 425 kts | 59° |
| 2026-05-07 14:34 | 39.50979 | 3.43595 | 20090 ft | 420 kts | 59° |
| 2026-05-07 14:34 | 39.52477 | 3.46852 | 19620 ft | 416 kts | 60° |
| 2026-05-07 14:34 | 39.53941 | 3.50042 | 19143 ft | 411 kts | 60° |
| 2026-05-07 14:35 | 39.55400 | 3.53227 | 18659 ft | 407 kts | 60° |
| 2026-05-07 14:35 | 39.56835 | 3.56362 | 18190 ft | 403 kts | 60° |
| 2026-05-07 14:35 | 39.58257 | 3.59474 | 17720 ft | 398 kts | 60° |
| 2026-05-07 14:35 | 39.59672 | 3.62573 | 17235 ft | 394 kts | 60° |
| 2026-05-07 14:36 | 39.61065 | 3.65628 | 16745 ft | 391 kts | 60° |
| 2026-05-07 14:36 | 39.62437 | 3.68639 | 16261 ft | 387 kts | 60° |
| 2026-05-07 14:36 | 39.63801 | 3.71637 | 15774 ft | 383 kts | 60° |
| 2026-05-07 14:36 | 39.65151 | 3.74607 | 15287 ft | 379 kts | 60° |
| 2026-05-07 14:37 | 39.66471 | 3.77512 | 14808 ft | 376 kts | 60° |
| 2026-05-07 14:37 | 39.69107 | 3.83323 | 13836 ft | 369 kts | 60° |
| 2026-05-07 14:37 | 39.70406 | 3.86189 | 13360 ft | 365 kts | 60° |
| 2026-05-07 14:38 | 39.71687 | 3.89019 | 12782 ft | 360 kts | 60° |
| 2026-05-07 14:38 | 39.72944 | 3.91799 | 12072 ft | 356 kts | 60° |
| 2026-05-07 14:38 | 39.74105 | 3.94582 | 11433 ft | 349 kts | 71° |
| 2026-05-07 14:38 | 39.74496 | 3.97632 | 10817 ft | 339 kts | 95° |
| 2026-05-07 14:39 | 39.73964 | 4.00533 | 10248 ft | 328 kts | 117° |
| 2026-05-07 14:39 | 39.72623 | 4.02886 | 9680 ft | 320 kts | 139° |
| 2026-05-07 14:39 | 39.70807 | 4.04465 | 9132 ft | 314 kts | 151° |
| 2026-05-07 14:39 | 39.68729 | 4.05328 | 8539 ft | 311 kts | 174° |
| 2026-05-07 14:40 | 39.66594 | 4.05095 | 7980 ft | 309 kts | 189° |
| 2026-05-07 14:40 | 39.64496 | 4.04520 | 7411 ft | 306 kts | 191° |
| 2026-05-07 14:40 | 39.62439 | 4.03920 | 6843 ft | 303 kts | 191° |
| 2026-05-07 14:40 | 39.60402 | 4.03325 | 6270 ft | 300 kts | 190° |
| 2026-05-07 14:41 | 39.58364 | 4.02725 | 5689 ft | 298 kts | 189° |
| 2026-05-07 14:41 | 39.56351 | 4.02648 | 5107 ft | 291 kts | 166° |
| 2026-05-07 14:41 | 39.54539 | 4.03674 | 4539 ft | 283 kts | 140° |
| 2026-05-07 14:41 | 39.53299 | 4.05586 | 3972 ft | 278 kts | 114° |
| 2026-05-07 14:42 | 39.52881 | 4.07981 | 3503 ft | 271 kts | 87° |
| 2026-05-07 14:42 | 39.53382 | 4.10264 | 3263 ft | 260 kts | 60° |
| 2026-05-07 14:42 | 39.54629 | 4.11878 | 3089 ft | 252 kts | 32° |
| 2026-05-07 14:42 | 39.56162 | 4.12837 | 3041 ft | 237 kts | 29° |
| 2026-05-07 14:43 | 39.57614 | 4.13733 | 3026 ft | 223 kts | 29° |
| 2026-05-07 14:43 | 39.58975 | 4.14575 | 3016 ft | 211 kts | 29° |
| 2026-05-07 14:43 | 39.60284 | 4.15387 | 3019 ft | 206 kts | 29° |
| 2026-05-07 14:43 | 39.61591 | 4.16197 | 3016 ft | 208 kts | 30° |
| 2026-05-07 14:44 | 39.62871 | 4.16994 | 3021 ft | 197 kts | 29° |
| 2026-05-07 14:44 | 39.64068 | 4.17733 | 3022 ft | 188 kts | 29° |
| 2026-05-07 14:44 | 39.65310 | 4.18232 | 3021 ft | 191 kts | 6° |
| 2026-05-07 14:44 | 39.66669 | 4.18236 | 3016 ft | 196 kts | 2° |
| 2026-05-07 14:45 | 39.68022 | 4.18229 | 3018 ft | 190 kts | 7° |
| 2026-05-07 14:45 | 39.69352 | 4.18377 | 3021 ft | 189 kts | 12° |
| 2026-05-07 14:45 | 39.70638 | 4.18628 | 2993 ft | 184 kts | 14° |
| 2026-05-07 14:45 | 39.71874 | 4.18901 | 2884 ft | 177 kts | 14° |
| 2026-05-07 14:46 | 39.73060 | 4.19154 | 2681 ft | 165 kts | 14° |
| 2026-05-07 14:46 | 39.74156 | 4.19381 | 2461 ft | 156 kts | 14° |
| 2026-05-07 14:46 | 39.75211 | 4.19595 | 2233 ft | 149 kts | 14° |
| 2026-05-07 14:46 | 39.76215 | 4.19803 | 2039 ft | 146 kts | 13° |
| 2026-05-07 14:47 | 39.77207 | 4.20001 | 1856 ft | 142 kts | 13° |
| 2026-05-07 14:47 | 39.78194 | 4.20212 | 1665 ft | 145 kts | 13° |
| 2026-05-07 14:47 | 39.79197 | 4.20407 | 1471 ft | 143 kts | 12° |
| 2026-05-07 14:47 | 39.80167 | 4.20611 | 1281 ft | 142 kts | 10° |
| 2026-05-07 14:48 | 39.81146 | 4.20812 | 1093 ft | 140 kts | 11° |
| 2026-05-07 14:48 | 39.82101 | 4.21002 | 911 ft | 140 kts | 9° |
| 2026-05-07 14:48 | 39.83061 | 4.21208 | 720 ft | 139 kts | 11° |
| 2026-05-07 14:48 | 39.84004 | 4.21400 | 536 ft | 133 kts | 9° |
| 2026-05-07 14:49 | 39.84910 | 4.21587 | 367 ft | 133 kts | 12° |
| 2026-05-07 14:49 | 39.85802 | 4.21772 | 295 ft | 105 kts | 9° |
| 2026-05-07 14:49 | 39.86284 | 4.21867 | 301 ft | 51 kts | 8° |
| 2026-05-07 14:49 | 39.86569 | 4.21927 | 300 ft | 29 kts | 10° |
| 2026-05-07 14:50 | 39.86757 | 4.21989 | 301 ft | 27 kts | 25° |
| 2026-05-07 14:50 | 39.86895 | 4.22108 | 299 ft | 19 kts | 39° |
| 2026-05-07 14:50 | 39.86937 | 4.22218 | 297 ft | 14 kts | 98° |
| 2026-05-07 14:50 | 39.86919 | 4.22353 | 294 ft | 9 kts | 102° |
| 2026-05-07 14:51 | 39.86868 | 4.22398 | 291 ft | 11 kts | 182° |
| 2026-05-07 14:51 | 39.86773 | 4.22379 | 289 ft | 14 kts | 189° |
| 2026-05-07 14:51 | 39.86667 | 4.22357 | 288 ft | 16 kts | 188° |
| 2026-05-07 14:51 | 39.86594 | 4.22348 | 288 ft | 3 kts | 146° |
| 2026-05-07 14:52 | 39.86582 | 4.22386 | 288 ft | 5 kts | 95° |
| 2026-05-07 14:52 | 39.86578 | 4.22429 | 288 ft | 1 kts | 99° |
| 2026-05-07 14:52 | 39.86577 | 4.22438 | 288 ft | 0 kts | 98° |
| 2026-05-07 14:52 | 39.86577 | 4.22439 | 288 ft | 0 kts | 98° |